Homer, NY

7:19 PM EST on December 24, 2014 (GMT -0500)
cortland | Change Station
CLOSE
Current Station
Personal Weather Station
Location: Cortland, NY
Elevation: 1148 ft
Nearby Weather Stations
Active Advisory: Wind Advisory

Elev 1148 ft 42.65 °N, 76.12 °W | Updated 12 minutes ago

Overcast
Overcast
50.8 °F
Feels Like 50.8 °F
N
21.0
Wind Variable Wind from North
Gusts 32.0 mph

Today
High -- | Low -- °F
--% Chance of Precip.
Yesterday
High -- | Low -- °F
Precip. -- in
7:33 AM 4:35 PM
Waxing Crescent, 12% visible
Pressure 29.47 in
Visibility 10.0 miles
Clouds Overcast 800 ft
Dew Point 49 °F
Humidity 94%
Rainfall 0.15 in
Snow Depth Not available.
UV 0 out of 12
Pollen .10 out of 12
Air Quality Not available.
Flu Activity Not available.
METAR KN03 250015Z AUTO 08004KT 10SM OVC008 11/11 A2947 RMK AO2

More Conditions Fewer Conditions

Pressure 29.47 in
Visibility 10.0 miles
Clouds Overcast 800 ft
Dew Point 49 °F
Humidity 94%
Rainfall 0.15 in
Snow Depth Not available.
UV 0 out of 12
Pollen .10 out of 12
Air Quality Not available.
Flu Activity Not available.
METAR KN03 250015Z AUTO 08004KT 10SM OVC008 11/11 A2947 RMK AO2

More Conditions Fewer Conditions

10-Day Weather Forecast

Almanac

Astronomy

Dec. 24, 2014 Rise Set
Actual Time
Civil Twilight
Nautical Twilight
Astronomical Twilight
Moon
Length of Visible Light
Length of Day
Tomorrow will be .
, % of the Moon is Illuminated

Today's Extremes

State Highs State Lows

Community

WunderPhotos

Upload Photos

1,780,188 photos uploaded!

WunderBlogs® & News

Nearby

Air Quality

  Air Quality AQ Index Pollutant
Not available.

Snow Depth

Station Depth Elevation

Earthquake Activity

City Distance Mag. Time & Date
Minimum magnitude displayed is 2.5.

Coastal Water Temperatures

Place Temperature

Nearby Weather Stations